Terminal Aerodrome Forecast
Issued by NWS Northern Indiana

Home | Current Version | Previous Version | Graphics & Text | Print | Product List | Glossary On
Versions: 1 2 3 4 5 6 7 8 9 10 11 12 13 14 15 16 17 18 19
000
FTUS43 KIWX 032320
TAFFWA
TAF
KFWA 032320Z 0400/0424 23007KT P6SM BKN100
     FM041200 22014G24KT 5SM SHRA BR OVC020
     FM041500 26014G22KT 3SM -RA BR OVC008
     FM041800 31015G25KT P6SM OVC020=

USA.gov is the U.S. government's official web portal to all federal, state and local government web resources and services.